createdAt,value
2018-08-28T00:01:50.644Z,18.90
2018-08-28T00:05:52.847Z,18.90
2018-08-28T00:09:54.999Z,18.90
2018-08-28T00:13:57.196Z,18.80
2018-08-28T00:17:59.328Z,18.80
2018-08-28T00:22:01.483Z,18.90
2018-08-28T00:26:03.690Z,18.80
2018-08-28T00:30:05.858Z,18.60
2018-08-28T00:34:08.067Z,18.70
2018-08-28T00:38:10.205Z,18.90
2018-08-28T00:42:12.345Z,18.70
2018-08-28T00:46:14.456Z,18.70
2018-08-28T00:50:16.627Z,18.50
2018-08-28T00:54:18.768Z,18.60
2018-08-28T00:58:20.932Z,18.50
2018-08-28T01:02:24.276Z,18.30
2018-08-28T01:06:26.458Z,18.10
2018-08-28T01:10:28.619Z,18.30
2018-08-28T01:14:30.828Z,18.10
2018-08-28T01:18:33.922Z,17.90
2018-08-28T01:22:36.043Z,17.80
2018-08-28T01:26:38.730Z,17.70
2018-08-28T01:30:40.916Z,16.80
2018-08-28T01:34:43.036Z,17.30
2018-08-28T01:38:45.254Z,17.60
2018-08-28T01:42:47.450Z,17.80
2018-08-28T01:46:49.648Z,17.80
2018-08-28T01:50:51.759Z,17.90
2018-08-28T01:54:53.897Z,17.60
2018-08-28T01:58:56.247Z,17.60
2018-08-28T02:02:58.367Z,17.50
2018-08-28T02:07:00.505Z,17.30
2018-08-28T02:11:02.655Z,17.30
2018-08-28T02:15:04.890Z,17.20
2018-08-28T02:19:07.318Z,17.00
2018-08-28T02:23:09.448Z,16.90
2018-08-28T02:27:11.626Z,16.90
2018-08-28T02:31:13.769Z,16.60
2018-08-28T02:35:15.899Z,16.60
2018-08-28T02:39:18.058Z,16.60
2018-08-28T02:43:20.183Z,16.50
2018-08-28T02:47:22.357Z,16.50
2018-08-28T02:51:24.509Z,16.40
2018-08-28T02:55:26.669Z,16.50
2018-08-28T02:59:28.775Z,16.40
2018-08-28T03:03:30.908Z,16.00
2018-08-28T03:07:33.056Z,16.10
2018-08-28T03:11:35.240Z,16.00
2018-08-28T03:15:37.470Z,15.80
2018-08-28T03:19:39.604Z,15.10
2018-08-28T03:23:41.754Z,15.00
2018-08-28T03:27:44.034Z,14.90
2018-08-28T03:31:46.186Z,14.70
2018-08-28T03:35:48.370Z,14.80
2018-08-28T03:39:50.564Z,14.40
2018-08-28T03:43:52.692Z,15.10
2018-08-28T03:47:54.822Z,15.50
2018-08-28T03:51:57.104Z,14.80
2018-08-28T03:55:59.264Z,15.10
2018-08-28T04:00:01.542Z,15.40
2018-08-28T04:04:03.903Z,14.30
2018-08-28T04:08:06.116Z,14.10
2018-08-28T04:12:09.088Z,14.30
2018-08-28T04:16:12.115Z,14.90
2018-08-28T04:20:14.513Z,15.50
2018-08-28T04:24:16.794Z,15.70
2018-08-28T04:28:18.936Z,14.90
2018-08-28T04:32:21.091Z,15.20
2018-08-28T04:36:23.226Z,15.70
2018-08-28T04:40:25.366Z,15.80
2018-08-28T04:44:27.534Z,15.90
2018-08-28T04:48:30.213Z,15.40
2018-08-28T04:52:32.338Z,15.60
2018-08-28T04:56:34.476Z,15.30
2018-08-28T05:00:36.660Z,15.40
2018-08-28T05:04:38.847Z,15.80
2018-08-28T05:08:41.048Z,16.10
2018-08-28T05:12:43.482Z,16.20
2018-08-28T05:16:45.643Z,16.30
2018-08-28T05:20:47.835Z,16.40
2018-08-28T05:24:50.370Z,16.50
2018-08-28T05:28:52.531Z,16.60
2018-08-28T05:32:54.747Z,16.70
2018-08-28T05:36:57.158Z,16.80
2018-08-28T05:40:59.585Z,16.90
2018-08-28T05:45:02.136Z,17.10
2018-08-28T05:49:04.319Z,17.30
2018-08-28T05:53:06.837Z,17.50
2018-08-28T05:57:09.023Z,17.80
2018-08-28T06:01:11.261Z,18.10
2018-08-28T06:05:13.424Z,18.40
2018-08-28T06:09:15.595Z,18.60
2018-08-28T06:13:17.743Z,18.80
2018-08-28T06:17:19.948Z,19.30
2018-08-28T06:21:22.120Z,19.70
2018-08-28T06:25:24.296Z,20.00
2018-08-28T06:29:26.479Z,20.40
2018-08-28T06:33:29.287Z,20.60
2018-08-28T06:37:31.680Z,20.80
2018-08-28T06:41:34.799Z,21.10
2018-08-28T06:45:36.985Z,21.60
2018-08-28T06:49:39.297Z,22.20
2018-08-28T06:53:42.562Z,22.40
2018-08-28T06:57:44.779Z,22.80
2018-08-28T07:01:47.075Z,23.20
2018-08-28T07:05:49.298Z,23.60
2018-08-28T07:09:51.528Z,24.10
2018-08-28T07:13:53.762Z,24.30
2018-08-28T07:17:56.693Z,24.80
2018-08-28T07:21:58.879Z,24.80
2018-08-28T07:26:01.090Z,25.10
2018-08-28T07:30:04.106Z,25.60
2018-08-28T07:34:06.928Z,25.60
2018-08-28T07:38:09.147Z,25.90
2018-08-28T07:42:11.422Z,26.10
2018-08-28T07:46:13.640Z,24.90
2018-08-28T07:50:15.844Z,24.00
2018-08-28T07:54:18.307Z,22.40
2018-08-28T07:58:20.995Z,19.80
2018-08-28T08:02:24.058Z,21.80
2018-08-28T08:06:28.511Z,20.10
2018-08-28T08:10:31.097Z,22.40
2018-08-28T08:14:33.352Z,21.30
2018-08-28T08:18:35.566Z,20.10
2018-08-28T08:22:37.704Z,21.90
2018-08-28T08:26:41.242Z,20.40
2018-08-28T08:30:43.553Z,22.00
2018-08-28T08:34:46.366Z,19.50
2018-08-28T08:38:48.654Z,21.30
2018-08-28T08:42:50.843Z,22.90
2018-08-28T08:46:53.591Z,23.80
2018-08-28T08:50:55.853Z,24.10
2018-08-28T08:54:58.223Z,22.80
2018-08-28T08:59:00.400Z,23.20
2018-08-28T09:03:02.660Z,24.00
2018-08-28T09:07:04.974Z,24.30
2018-08-28T09:11:07.692Z,25.10
2018-08-28T09:15:09.902Z,25.10
2018-08-28T09:19:13.187Z,25.20
2018-08-28T09:23:15.415Z,25.50
2018-08-28T09:27:18.338Z,25.50
2018-08-28T09:31:20.596Z,25.60
2018-08-28T09:35:22.822Z,25.80
2018-08-28T09:39:25.679Z,26.10
2018-08-28T09:43:28.778Z,26.70
2018-08-28T09:47:31.059Z,26.80
2018-08-28T09:51:33.231Z,26.30
2018-08-28T09:55:35.467Z,26.00
2018-08-28T09:59:37.688Z,26.80
2018-08-28T10:03:41.110Z,26.70
2018-08-28T10:07:43.435Z,27.00
2018-08-28T10:11:45.778Z,27.10
2018-08-28T10:15:49.126Z,27.40
2018-08-28T10:19:51.360Z,27.40
2018-08-28T10:23:53.648Z,27.40
2018-08-28T10:27:55.920Z,27.50
2018-08-28T10:31:58.139Z,28.30
2018-08-28T10:36:00.512Z,27.60
2018-08-28T10:40:02.892Z,28.00
2018-08-28T10:44:05.382Z,26.50
2018-08-28T10:48:08.378Z,28.10
2018-08-28T10:52:12.319Z,28.00
2018-08-28T10:56:15.074Z,28.30
2018-08-28T11:00:17.399Z,27.40
2018-08-28T11:04:19.656Z,24.50
2018-08-28T11:08:21.877Z,25.50
2018-08-28T11:12:24.927Z,27.10
2018-08-28T11:16:27.140Z,28.20
2018-08-28T11:20:29.338Z,27.90
2018-08-28T11:24:31.531Z,28.60
2018-08-28T11:28:34.102Z,27.00
2018-08-28T11:32:36.339Z,28.10
2018-08-28T11:36:39.287Z,28.90
2018-08-28T11:40:41.619Z,29.10
2018-08-28T11:44:43.811Z,29.60
2018-08-28T11:48:46.019Z,26.60
2018-08-28T11:52:48.227Z,27.00
2018-08-28T11:56:50.941Z,28.60
2018-08-28T12:00:53.228Z,29.30
2018-08-28T12:04:55.442Z,29.90
2018-08-28T12:08:57.654Z,30.20
2018-08-28T12:12:59.880Z,28.70
2018-08-28T12:17:02.002Z,26.20
2018-08-28T12:21:04.296Z,25.90
2018-08-28T12:25:07.076Z,26.70
2018-08-28T12:29:09.252Z,25.20
2018-08-28T12:33:11.434Z,27.40
2018-08-28T12:37:14.303Z,29.90
2018-08-28T12:41:16.411Z,31.70
2018-08-28T12:45:18.695Z,32.70
2018-08-28T12:49:20.840Z,34.20
2018-08-28T12:53:22.990Z,33.00
2018-08-28T12:57:25.172Z,32.10
2018-08-28T13:01:27.345Z,29.10
2018-08-28T13:05:29.583Z,29.90
2018-08-28T13:09:32.124Z,32.40
2018-08-28T13:13:35.584Z,32.00
2018-08-28T13:17:37.992Z,33.00
2018-08-28T13:21:40.176Z,32.90
2018-08-28T13:25:44.396Z,33.80
2018-08-28T13:29:46.555Z,33.80
2018-08-28T13:33:49.055Z,34.10
2018-08-28T13:37:51.869Z,33.40
2018-08-28T13:41:54.515Z,33.20
2018-08-28T13:45:56.747Z,34.30
2018-08-28T13:49:58.929Z,34.30
2018-08-28T13:54:01.158Z,33.60
2018-08-28T13:58:03.378Z,33.90
2018-08-28T14:02:05.581Z,34.70
2018-08-28T14:06:08.362Z,33.50
2018-08-28T14:10:10.557Z,34.60
2018-08-28T14:14:13.344Z,33.70
2018-08-28T14:18:16.307Z,34.10
2018-08-28T14:22:19.311Z,33.50
2018-08-28T14:26:21.589Z,33.00
2018-08-28T14:30:24.181Z,33.40
2018-08-28T14:34:26.375Z,33.50
2018-08-28T14:38:28.600Z,33.60
2018-08-28T14:42:31.545Z,32.20
2018-08-28T14:46:33.678Z,32.40
2018-08-28T14:50:35.961Z,32.60
2018-08-28T14:54:38.151Z,33.70
2018-08-28T14:58:40.366Z,33.60
2018-08-28T15:02:43.603Z,33.40
2018-08-28T15:06:47.066Z,33.70
2018-08-28T15:10:50.272Z,33.70
2018-08-28T15:14:52.585Z,32.80
2018-08-28T15:18:54.857Z,33.10
2018-08-28T15:22:57.068Z,33.20
2018-08-28T15:26:59.281Z,33.00
2018-08-28T15:31:01.532Z,32.20
2018-08-28T15:35:03.770Z,31.70
2018-08-28T15:39:06.424Z,32.00
2018-08-28T15:43:08.652Z,31.20
2018-08-28T15:47:10.852Z,30.90
2018-08-28T15:51:13.126Z,30.80
2018-08-28T15:55:15.240Z,30.90
2018-08-28T15:59:20.108Z,30.50
2018-08-28T16:03:22.511Z,30.60
2018-08-28T16:07:24.711Z,29.80
2018-08-28T16:11:26.908Z,30.30
2018-08-28T16:15:29.259Z,29.60
2018-08-28T16:19:32.041Z,28.70
2018-08-28T16:23:37.654Z,28.30
2018-08-28T16:27:39.801Z,27.10
2018-08-28T16:31:41.991Z,27.10
2018-08-28T16:35:45.369Z,27.20
2018-08-28T16:39:48.723Z,27.30
2018-08-28T16:43:52.088Z,26.20
2018-08-28T16:47:55.297Z,27.40
2018-08-28T16:52:03.951Z,27.50
2018-08-28T16:56:06.396Z,27.40
2018-08-28T17:00:08.588Z,26.00
2018-08-28T17:04:10.781Z,27.00
2018-08-28T17:08:13.121Z,27.60
2018-08-28T17:12:15.365Z,25.50
2018-08-28T17:16:17.567Z,26.00
2018-08-28T17:20:19.744Z,26.80
2018-08-28T17:24:21.995Z,27.10
2018-08-28T17:28:24.346Z,27.30
2018-08-28T17:32:27.699Z,27.40
2018-08-28T17:36:31.280Z,27.40
2018-08-28T17:40:34.932Z,26.40
2018-08-28T17:44:37.644Z,26.50
2018-08-28T17:48:39.915Z,27.20
2018-08-28T17:52:42.174Z,27.30
2018-08-28T17:56:45.205Z,26.30
2018-08-28T18:00:48.426Z,26.20
2018-08-28T18:04:50.648Z,26.20
2018-08-28T18:08:52.850Z,26.40
2018-08-28T18:12:56.408Z,26.50
2018-08-28T18:16:58.661Z,25.90
2018-08-28T18:21:00.863Z,25.70
2018-08-28T18:25:03.123Z,25.50
2018-08-28T18:29:07.350Z,25.30
2018-08-28T18:33:10.852Z,24.60
2018-08-28T18:37:13.967Z,24.50
2018-08-28T18:41:16.247Z,24.20
2018-08-28T18:45:18.452Z,24.00
2018-08-28T18:49:20.632Z,23.50
2018-08-28T18:53:23.872Z,23.20
2018-08-28T18:57:26.075Z,23.00
2018-08-28T19:01:28.306Z,23.20
2018-08-28T19:05:30.533Z,23.10
2018-08-28T19:09:32.719Z,23.20
2018-08-28T19:13:34.904Z,22.70
2018-08-28T19:17:37.744Z,22.30
2018-08-28T19:21:40.591Z,22.40
2018-08-28T19:25:43.813Z,22.20
2018-08-28T19:29:47.056Z,21.90
2018-08-28T19:33:50.911Z,22.00
2018-08-28T19:37:53.609Z,21.70
2018-08-28T19:41:57.400Z,21.80
2018-08-28T19:45:59.760Z,21.70
2018-08-28T19:50:02.579Z,21.30
2018-08-28T19:54:06.383Z,21.30
2018-08-28T19:58:08.785Z,21.30
2018-08-28T20:02:10.961Z,21.20
2018-08-28T20:06:15.636Z,21.10
2018-08-28T20:10:18.950Z,21.00
2018-08-28T20:14:22.362Z,20.90
2018-08-28T20:18:24.648Z,20.70
2018-08-28T20:22:26.843Z,20.50
2018-08-28T20:26:29.063Z,20.50
2018-08-28T20:30:31.566Z,20.50
2018-08-28T20:34:34.097Z,20.50
2018-08-28T20:38:36.267Z,20.30
2018-08-28T20:42:38.462Z,20.20
2018-08-28T20:46:40.632Z,19.80
2018-08-28T20:50:42.816Z,19.50
2018-08-28T20:54:44.974Z,19.20
2018-08-28T20:58:47.224Z,19.30
2018-08-28T21:02:49.468Z,19.40
2018-08-28T21:06:52.235Z,19.60
2018-08-28T21:10:54.314Z,19.60
2018-08-28T21:14:56.480Z,19.50
2018-08-28T21:18:58.811Z,19.50
2018-08-28T21:23:06.840Z,19.40
2018-08-28T21:27:09.947Z,19.40
2018-08-28T21:31:12.450Z,19.30
2018-08-28T21:35:15.371Z,19.10
2018-08-28T21:39:18.323Z,19.10
2018-08-28T21:43:20.504Z,19.00
2018-08-28T21:47:24.488Z,18.90
2018-08-28T21:51:26.655Z,18.70
2018-08-28T21:55:28.794Z,18.80
2018-08-28T21:59:30.998Z,18.60
2018-08-28T22:03:33.238Z,18.60
2018-08-28T22:07:40.563Z,18.50
2018-08-28T22:11:44.102Z,18.40
2018-08-28T22:15:46.248Z,18.40
2018-08-28T22:19:48.475Z,18.30
2018-08-28T22:23:50.822Z,18.20
2018-08-28T22:27:52.950Z,18.10
2018-08-28T22:31:55.129Z,18.20
2018-08-28T22:35:57.277Z,18.00
2018-08-28T22:39:59.699Z,18.10
2018-08-28T22:44:01.861Z,17.90
2018-08-28T22:48:04.346Z,17.90
2018-08-28T22:52:06.508Z,17.90
2018-08-28T22:56:08.686Z,17.80
2018-08-28T23:00:10.920Z,17.70
2018-08-28T23:04:13.247Z,17.70
2018-08-28T23:08:15.484Z,17.80
2018-08-28T23:12:17.645Z,17.70
2018-08-28T23:16:20.274Z,17.70
2018-08-28T23:20:22.413Z,17.60
2018-08-28T23:24:24.687Z,17.60
2018-08-28T23:28:27.790Z,17.60
2018-08-28T23:32:30.332Z,17.50
2018-08-28T23:36:32.527Z,17.50
2018-08-28T23:40:34.652Z,17.40
2018-08-28T23:44:36.771Z,17.30
2018-08-28T23:48:38.956Z,16.40
2018-08-28T23:52:41.178Z,17.10
2018-08-28T23:56:43.282Z,17.20
